createdAt,value
2022-11-16T00:01:19.461Z,10.04
2022-11-16T00:03:45.891Z,10.07
2022-11-16T00:06:12.308Z,10.05
2022-11-16T00:08:38.712Z,10.06
2022-11-16T00:11:05.131Z,10.08
2022-11-16T00:13:31.555Z,10.09
2022-11-16T00:15:57.973Z,10.11
2022-11-16T00:18:24.427Z,10.13
2022-11-16T00:20:50.845Z,10.14
2022-11-16T00:23:17.290Z,10.15
2022-11-16T00:25:43.715Z,10.16
2022-11-16T00:28:10.138Z,10.16
2022-11-16T00:30:36.559Z,10.15
2022-11-16T00:33:02.988Z,10.18
2022-11-16T00:35:29.400Z,10.19
2022-11-16T00:37:55.791Z,10.24
2022-11-16T00:40:22.210Z,10.23
2022-11-16T00:42:48.633Z,10.30
2022-11-16T00:45:15.033Z,10.12
2022-11-16T00:47:41.473Z,10.09
2022-11-16T00:50:07.914Z,10.14
2022-11-16T00:52:34.329Z,10.18
2022-11-16T00:55:00.761Z,10.17
2022-11-16T00:57:27.163Z,10.18
2022-11-16T00:59:53.582Z,10.18
2022-11-16T01:02:20.016Z,10.17
2022-11-16T01:04:46.417Z,10.22
2022-11-16T01:07:12.913Z,10.26
2022-11-16T01:09:39.347Z,10.21
2022-11-16T01:12:05.756Z,10.16
2022-11-16T01:14:32.191Z,10.17
2022-11-16T01:16:58.605Z,10.17
2022-11-16T01:19:25.031Z,10.20
2022-11-16T01:21:51.431Z,10.22
2022-11-16T01:24:17.869Z,10.20
2022-11-16T01:26:44.283Z,10.21
2022-11-16T01:29:10.679Z,10.23
2022-11-16T01:31:37.106Z,10.27
2022-11-16T01:34:03.514Z,10.25
2022-11-16T01:36:29.944Z,10.28
2022-11-16T01:38:56.358Z,10.28
2022-11-16T01:41:22.755Z,10.30
2022-11-16T01:43:49.179Z,10.32
2022-11-16T01:46:15.579Z,10.32
2022-11-16T01:48:42.044Z,10.32
2022-11-16T01:51:08.542Z,10.31
2022-11-16T01:53:34.965Z,10.30
2022-11-16T01:56:01.409Z,10.30
2022-11-16T01:58:27.827Z,10.32
2022-11-16T02:00:54.259Z,10.33
2022-11-16T02:03:20.706Z,10.37
2022-11-16T02:05:47.143Z,10.45
2022-11-16T02:08:13.585Z,10.34
2022-11-16T02:10:39.992Z,10.37
2022-11-16T02:13:06.409Z,10.23
2022-11-16T02:15:32.821Z,10.20
2022-11-16T02:17:59.454Z,10.22
2022-11-16T02:20:25.921Z,10.25
2022-11-16T02:22:52.346Z,10.30
2022-11-16T02:25:18.772Z,10.33
2022-11-16T02:27:45.197Z,10.29
2022-11-16T02:30:11.622Z,10.32
2022-11-16T02:32:38.019Z,10.30
2022-11-16T02:35:04.440Z,10.36
2022-11-16T02:37:30.842Z,10.34
2022-11-16T02:39:57.239Z,10.36
2022-11-16T02:42:23.650Z,10.34
2022-11-16T02:44:50.051Z,10.33
2022-11-16T02:47:16.468Z,10.37
2022-11-16T02:49:42.873Z,10.38
2022-11-16T02:52:09.289Z,10.39
2022-11-16T02:54:35.734Z,10.44
2022-11-16T02:57:02.154Z,10.46
2022-11-16T02:59:28.580Z,10.48
2022-11-16T03:01:55.006Z,10.46
2022-11-16T03:04:21.406Z,10.49
2022-11-16T03:06:47.915Z,10.51
2022-11-16T03:09:14.397Z,10.53
2022-11-16T03:11:40.824Z,10.56
2022-11-16T03:14:07.773Z,10.51
2022-11-16T03:16:34.189Z,10.50
2022-11-16T03:19:00.605Z,10.51
2022-11-16T03:21:27.017Z,10.53
2022-11-16T03:23:53.522Z,10.49
2022-11-16T03:26:19.922Z,10.46
2022-11-16T03:28:46.370Z,10.48
2022-11-16T03:31:12.808Z,10.47
2022-11-16T03:33:39.222Z,10.43
2022-11-16T03:36:05.646Z,10.33
2022-11-16T03:38:32.336Z,10.29
2022-11-16T03:40:59.006Z,10.23
2022-11-16T03:43:25.478Z,10.22
2022-11-16T03:45:51.902Z,10.23
2022-11-16T03:48:18.299Z,10.22
2022-11-16T03:50:44.724Z,10.22
2022-11-16T03:53:11.132Z,10.23
2022-11-16T03:55:37.531Z,10.24
2022-11-16T03:58:03.998Z,10.21
2022-11-16T04:00:30.461Z,10.23
2022-11-16T04:02:56.931Z,10.26
2022-11-16T04:05:23.433Z,10.25
2022-11-16T04:07:49.850Z,10.20
2022-11-16T04:10:16.265Z,10.19
2022-11-16T04:12:42.698Z,10.16
2022-11-16T04:15:09.142Z,10.20
2022-11-16T04:17:35.565Z,10.12
2022-11-16T04:20:01.978Z,10.15
2022-11-16T04:22:28.396Z,10.08
2022-11-16T04:24:54.839Z,10.08
2022-11-16T04:27:21.321Z,10.06
2022-11-16T04:29:47.746Z,10.05
2022-11-16T04:32:14.175Z,9.99
2022-11-16T04:34:40.571Z,9.97
2022-11-16T04:37:07.009Z,9.92
2022-11-16T04:39:33.418Z,9.88
2022-11-16T04:41:59.838Z,9.88
2022-11-16T04:44:29.991Z,9.84
2022-11-16T04:46:56.555Z,9.77
2022-11-16T04:49:22.967Z,9.73
2022-11-16T04:51:49.386Z,9.70
2022-11-16T04:54:15.798Z,9.63
2022-11-16T04:56:42.204Z,9.61
2022-11-16T04:59:08.811Z,9.54
2022-11-16T05:01:35.278Z,9.55
2022-11-16T05:04:02.505Z,9.47
2022-11-16T05:06:28.936Z,9.44
2022-11-16T05:08:55.332Z,9.41
2022-11-16T05:11:21.726Z,9.32
2022-11-16T05:13:48.148Z,9.31
2022-11-16T05:16:14.555Z,9.30
2022-11-16T05:18:40.973Z,9.25
2022-11-16T05:21:07.373Z,9.22
2022-11-16T05:23:33.822Z,9.15
2022-11-16T05:26:00.235Z,9.13
2022-11-16T05:28:26.640Z,9.22
2022-11-16T05:30:53.116Z,9.21
2022-11-16T05:33:19.517Z,9.11
2022-11-16T05:35:45.901Z,9.23
2022-11-16T05:38:12.318Z,9.33
2022-11-16T05:40:38.720Z,9.20
2022-11-16T05:43:05.094Z,9.13
2022-11-16T05:45:31.497Z,9.14
2022-11-16T05:47:57.882Z,9.19
2022-11-16T05:50:24.288Z,9.20
2022-11-16T05:52:50.727Z,9.13
2022-11-16T05:55:17.141Z,9.09
2022-11-16T05:57:43.530Z,9.07
2022-11-16T06:00:09.943Z,9.07
2022-11-16T06:02:36.413Z,9.02
2022-11-16T06:05:02.884Z,9.00
2022-11-16T06:07:29.367Z,8.98
2022-11-16T06:09:55.919Z,8.93
2022-11-16T06:12:22.417Z,8.89
2022-11-16T06:14:48.893Z,8.83
2022-11-16T06:17:17.364Z,8.95
2022-11-16T06:19:43.746Z,8.79
2022-11-16T06:22:10.161Z,8.73
2022-11-16T06:24:37.098Z,8.68
2022-11-16T06:27:03.503Z,8.68
2022-11-16T06:29:29.913Z,8.68
2022-11-16T06:31:56.319Z,8.69
2022-11-16T06:34:22.712Z,8.75
2022-11-16T06:36:49.131Z,8.67
2022-11-16T06:39:15.635Z,8.66
2022-11-16T06:41:42.024Z,8.65
2022-11-16T06:44:08.419Z,8.78
2022-11-16T06:46:34.837Z,8.89
2022-11-16T06:49:01.245Z,8.85
2022-11-16T06:51:27.656Z,8.79
2022-11-16T06:53:54.082Z,8.90
2022-11-16T06:56:20.482Z,8.98
2022-11-16T06:58:46.885Z,8.72
2022-11-16T07:01:13.320Z,8.65
2022-11-16T07:03:39.920Z,8.66
2022-11-16T07:06:07.536Z,8.79
2022-11-16T07:08:34.023Z,8.70
2022-11-16T07:11:04.152Z,8.68
2022-11-16T07:13:30.863Z,8.66
2022-11-16T07:15:57.259Z,8.70
2022-11-16T07:18:23.660Z,8.79
2022-11-16T07:20:50.088Z,8.82
2022-11-16T07:23:16.488Z,8.88
2022-11-16T07:25:43.156Z,8.95
2022-11-16T07:28:09.541Z,9.00
2022-11-16T07:30:35.935Z,9.08
2022-11-16T07:33:02.340Z,9.17
2022-11-16T07:35:28.738Z,9.38
2022-11-16T07:37:55.130Z,9.43
2022-11-16T07:40:21.535Z,9.50
2022-11-16T07:42:47.957Z,9.56
2022-11-16T07:45:14.327Z,9.69
2022-11-16T07:47:40.713Z,9.70
2022-11-16T07:50:07.123Z,9.73
2022-11-16T07:52:33.513Z,9.77
2022-11-16T07:54:59.887Z,9.75
2022-11-16T07:57:26.276Z,9.78
2022-11-16T07:59:52.796Z,9.80
2022-11-16T08:02:19.200Z,9.86
2022-11-16T08:04:45.617Z,9.91
2022-11-16T08:07:12.044Z,9.94
2022-11-16T08:09:38.482Z,10.04
2022-11-16T08:12:05.068Z,10.14
2022-11-16T08:14:31.466Z,10.18
2022-11-16T08:16:57.955Z,10.21
2022-11-16T08:19:24.341Z,10.24
2022-11-16T08:21:50.716Z,10.23
2022-11-16T08:24:17.235Z,10.21
2022-11-16T08:26:43.654Z,10.19
2022-11-16T08:29:10.074Z,10.20
2022-11-16T08:31:36.467Z,10.17
2022-11-16T08:34:02.895Z,10.15
2022-11-16T08:36:29.276Z,10.21
2022-11-16T08:38:55.673Z,10.33
2022-11-16T08:41:22.205Z,10.31
2022-11-16T08:43:48.611Z,10.33
2022-11-16T08:46:15.004Z,10.41
2022-11-16T08:48:42.002Z,10.53
2022-11-16T08:51:23.774Z,10.55
2022-11-16T08:53:50.175Z,10.63
2022-11-16T08:56:16.591Z,10.67
2022-11-16T08:58:43.042Z,10.71
2022-11-16T09:01:09.430Z,10.81
2022-11-16T09:03:35.891Z,10.89
2022-11-16T09:06:02.330Z,10.98
2022-11-16T09:08:28.739Z,11.08
2022-11-16T09:10:55.153Z,11.14
2022-11-16T09:13:21.538Z,11.23
2022-11-16T09:15:47.917Z,11.27
2022-11-16T09:18:14.333Z,11.35
2022-11-16T09:20:40.737Z,11.41
2022-11-16T09:23:07.129Z,11.48
2022-11-16T09:25:33.517Z,11.60
2022-11-16T09:27:59.905Z,11.63
2022-11-16T09:30:26.309Z,11.64
2022-11-16T09:32:52.695Z,11.64
2022-11-16T09:35:19.186Z,11.72
2022-11-16T09:37:45.560Z,11.72
2022-11-16T09:40:11.940Z,11.77
2022-11-16T09:42:38.377Z,11.76
2022-11-16T09:45:04.924Z,11.78
2022-11-16T09:47:31.428Z,11.83
2022-11-16T09:50:02.922Z,11.86
2022-11-16T09:52:30.221Z,11.85
2022-11-16T09:54:56.616Z,11.90
2022-11-16T09:57:23.016Z,11.98
2022-11-16T09:59:49.421Z,12.07
2022-11-16T10:02:15.893Z,12.18
2022-11-16T10:04:42.295Z,12.22
2022-11-16T10:07:08.737Z,12.26
2022-11-16T10:09:35.164Z,12.37
2022-11-16T10:12:01.556Z,12.40
2022-11-16T10:14:27.965Z,12.40
2022-11-16T10:16:54.354Z,12.50
2022-11-16T10:19:20.854Z,12.54
2022-11-16T10:21:47.240Z,12.50
2022-11-16T10:24:13.614Z,12.41
2022-11-16T10:26:40.020Z,12.46
2022-11-16T10:29:06.410Z,12.43
2022-11-16T10:31:32.787Z,12.37
2022-11-16T10:33:59.178Z,12.38
2022-11-16T10:36:25.567Z,12.43
2022-11-16T10:38:51.960Z,12.56
2022-11-16T10:41:18.366Z,12.62
2022-11-16T10:43:44.752Z,12.61
2022-11-16T10:46:11.141Z,12.59
2022-11-16T10:48:37.558Z,12.72
2022-11-16T10:51:03.957Z,12.69
2022-11-16T10:53:30.359Z,12.68
2022-11-16T10:55:56.760Z,12.71
2022-11-16T10:58:23.268Z,12.78
2022-11-16T11:00:49.744Z,12.85
2022-11-16T11:03:16.175Z,12.82
2022-11-16T11:05:42.586Z,12.81
2022-11-16T11:08:09.008Z,12.86
2022-11-16T11:10:35.415Z,12.87
2022-11-16T11:13:01.841Z,12.91
2022-11-16T11:15:28.243Z,12.87
2022-11-16T11:17:54.668Z,12.94
2022-11-16T11:20:21.058Z,12.98
2022-11-16T11:22:47.471Z,13.13
2022-11-16T11:25:13.874Z,13.20
2022-11-16T11:27:40.268Z,13.28
2022-11-16T11:30:06.647Z,13.34
2022-11-16T11:32:33.022Z,13.39
2022-11-16T11:34:59.427Z,13.44
2022-11-16T11:37:25.915Z,13.42
2022-11-16T11:39:52.324Z,13.44
2022-11-16T11:42:18.739Z,13.45
2022-11-16T11:44:45.143Z,13.51
2022-11-16T11:47:55.591Z,13.54
2022-11-16T11:49:57.981Z,13.58
2022-11-16T11:52:24.382Z,13.52
2022-11-16T11:54:50.758Z,13.60
2022-11-16T11:57:17.179Z,13.62
2022-11-16T11:59:43.581Z,13.69
2022-11-16T12:02:09.987Z,13.75
2022-11-16T12:04:36.371Z,13.82
2022-11-16T12:07:02.835Z,13.85
2022-11-16T12:09:29.270Z,13.87
2022-11-16T12:11:55.646Z,13.92
2022-11-16T12:14:22.042Z,14.02
2022-11-16T12:16:48.465Z,14.07
2022-11-16T12:19:14.875Z,14.11
2022-11-16T12:21:41.288Z,14.11
2022-11-16T12:24:07.668Z,14.08
2022-11-16T12:26:34.055Z,14.08
2022-11-16T12:29:00.482Z,14.08
2022-11-16T12:31:26.865Z,14.10
2022-11-16T12:33:53.255Z,14.11
2022-11-16T12:36:19.681Z,14.18
2022-11-16T12:38:46.068Z,14.13
2022-11-16T12:41:12.559Z,14.22
2022-11-16T12:43:38.964Z,14.27
2022-11-16T12:46:05.351Z,14.24
2022-11-16T12:48:31.742Z,14.19
2022-11-16T12:50:58.165Z,14.20
2022-11-16T12:53:24.550Z,14.15
2022-11-16T12:55:50.942Z,14.13
2022-11-16T12:58:17.334Z,14.06
2022-11-16T13:00:43.806Z,14.03
2022-11-16T13:03:10.214Z,14.02
2022-11-16T13:05:36.608Z,13.98
2022-11-16T13:08:03.001Z,13.96
2022-11-16T13:10:29.410Z,13.93
2022-11-16T13:13:09.300Z,13.93
2022-11-16T13:15:42.214Z,13.89
2022-11-16T13:18:08.643Z,13.89
2022-11-16T13:20:35.033Z,13.91
2022-11-16T13:23:01.446Z,13.91
2022-11-16T13:25:27.820Z,13.90
2022-11-16T13:27:54.203Z,13.87
2022-11-16T13:30:20.620Z,13.83
2022-11-16T13:32:46.997Z,13.82
2022-11-16T13:35:13.411Z,13.77
2022-11-16T13:37:39.827Z,13.74
2022-11-16T13:40:06.262Z,13.68
2022-11-16T13:42:32.669Z,13.67
2022-11-16T13:44:59.080Z,13.64
2022-11-16T13:47:25.571Z,13.59
2022-11-16T13:49:51.968Z,13.52
2022-11-16T13:52:23.873Z,13.46
2022-11-16T13:54:51.684Z,13.43
2022-11-16T13:57:18.456Z,13.38
2022-11-16T13:59:44.932Z,13.34
2022-11-16T14:02:11.338Z,13.32
2022-11-16T14:04:37.759Z,13.40
2022-11-16T14:07:04.250Z,13.33
2022-11-16T14:09:33.198Z,13.36
2022-11-16T14:11:59.648Z,13.35
2022-11-16T14:14:26.067Z,13.28
2022-11-16T14:16:52.476Z,13.29
2022-11-16T14:19:18.883Z,13.27
2022-11-16T14:21:45.291Z,13.33
2022-11-16T14:24:11.701Z,13.44
2022-11-16T14:26:38.128Z,13.49
2022-11-16T14:29:04.530Z,13.47
2022-11-16T14:31:30.904Z,13.46
2022-11-16T14:33:57.313Z,13.52
2022-11-16T14:36:23.712Z,13.52
2022-11-16T14:38:50.112Z,13.56
2022-11-16T14:41:16.493Z,13.48
2022-11-16T14:43:42.914Z,13.44
2022-11-16T14:46:09.322Z,13.42
2022-11-16T14:48:35.764Z,13.35
2022-11-16T14:51:02.240Z,13.29
2022-11-16T14:53:28.663Z,13.21
2022-11-16T14:55:55.051Z,13.19
2022-11-16T14:58:21.697Z,13.13
2022-11-16T15:00:48.156Z,13.06
2022-11-16T15:03:14.622Z,13.04
2022-11-16T15:05:41.053Z,13.01
2022-11-16T15:08:07.440Z,12.99
2022-11-16T15:10:33.881Z,12.92
2022-11-16T15:13:00.259Z,12.90
2022-11-16T15:15:26.644Z,12.87
2022-11-16T15:17:53.074Z,12.82
2022-11-16T15:20:19.469Z,12.76
2022-11-16T15:22:45.877Z,12.74
2022-11-16T15:25:12.273Z,12.65
2022-11-16T15:27:38.682Z,12.59
2022-11-16T15:30:05.106Z,12.55
2022-11-16T15:32:31.489Z,12.45
2022-11-16T15:35:02.447Z,12.40
2022-11-16T15:37:31.447Z,12.41
2022-11-16T15:39:57.867Z,12.28
2022-11-16T15:42:24.254Z,12.18
2022-11-16T15:44:50.633Z,12.10
2022-11-16T15:47:17.086Z,12.07
2022-11-16T15:49:43.483Z,11.96
2022-11-16T15:52:09.900Z,11.91
2022-11-16T15:54:36.309Z,11.87
2022-11-16T15:57:02.707Z,11.82
2022-11-16T15:59:29.085Z,11.79
2022-11-16T16:01:55.529Z,11.77
2022-11-16T16:04:21.968Z,11.71
2022-11-16T16:06:48.525Z,11.74
2022-11-16T16:09:15.082Z,11.63
2022-11-16T16:11:41.487Z,11.54
2022-11-16T16:14:07.899Z,11.49
2022-11-16T16:16:34.307Z,11.49
2022-11-16T16:19:04.955Z,11.41
2022-11-16T16:21:34.676Z,11.36
2022-11-16T16:24:01.138Z,11.32
2022-11-16T16:26:27.531Z,11.20
2022-11-16T16:28:53.959Z,11.15
2022-11-16T16:31:20.375Z,11.09
2022-11-16T16:33:46.802Z,11.06
2022-11-16T16:36:13.206Z,11.03
2022-11-16T16:38:39.624Z,11.00
2022-11-16T16:41:06.063Z,11.00
2022-11-16T16:43:32.802Z,10.97
2022-11-16T16:45:59.435Z,11.01
2022-11-16T16:48:25.843Z,11.04
2022-11-16T16:50:52.246Z,10.93
2022-11-16T16:53:18.681Z,10.90
2022-11-16T16:55:45.114Z,10.90
2022-11-16T16:58:11.512Z,10.91
2022-11-16T17:00:38.038Z,10.92
2022-11-16T17:03:04.510Z,10.94
2022-11-16T17:05:30.890Z,10.97
2022-11-16T17:07:57.314Z,11.03
2022-11-16T17:10:23.714Z,11.03
2022-11-16T17:12:50.262Z,11.03
2022-11-16T17:15:19.508Z,11.04
2022-11-16T17:17:46.066Z,11.04
2022-11-16T17:20:12.434Z,11.04
2022-11-16T17:22:38.910Z,11.04
2022-11-16T17:25:05.306Z,11.00
2022-11-16T17:27:31.687Z,10.99
2022-11-16T17:29:58.072Z,10.98
2022-11-16T17:32:24.485Z,10.98
2022-11-16T17:34:50.914Z,10.94
2022-11-16T17:37:17.324Z,10.88
2022-11-16T17:39:43.720Z,10.86
2022-11-16T17:42:10.129Z,10.82
2022-11-16T17:44:36.515Z,10.77
2022-11-16T17:47:02.923Z,10.76
2022-11-16T17:49:29.319Z,10.75
2022-11-16T17:51:55.715Z,10.75
2022-11-16T17:54:22.130Z,10.70
2022-11-16T17:56:48.512Z,10.63
2022-11-16T17:59:14.888Z,10.49
2022-11-16T18:01:41.305Z,10.44
2022-11-16T18:04:07.728Z,10.31
2022-11-16T18:06:34.132Z,10.31
2022-11-16T18:09:00.533Z,10.22
2022-11-16T18:11:26.998Z,10.15
2022-11-16T18:13:53.414Z,10.09
2022-11-16T18:16:19.827Z,10.09
2022-11-16T18:18:46.260Z,10.01
2022-11-16T18:21:18.791Z,9.99
2022-11-16T18:23:46.721Z,10.01
2022-11-16T18:26:13.184Z,10.02
2022-11-16T18:28:39.659Z,9.94
2022-11-16T18:31:06.085Z,9.93
2022-11-16T18:33:32.810Z,9.89
2022-11-16T18:35:59.596Z,9.88
2022-11-16T18:38:25.995Z,9.87
2022-11-16T18:40:52.392Z,9.89
2022-11-16T18:43:18.818Z,9.85
2022-11-16T18:45:45.203Z,9.82
2022-11-16T18:48:11.622Z,9.83
2022-11-16T18:50:38.018Z,9.87
2022-11-16T18:53:04.434Z,9.81
2022-11-16T18:55:30.867Z,9.82
2022-11-16T18:57:57.291Z,9.87
2022-11-16T19:00:23.712Z,9.85
2022-11-16T19:02:50.238Z,9.90
2022-11-16T19:05:16.668Z,9.84
2022-11-16T19:07:43.089Z,9.86
2022-11-16T19:10:09.527Z,9.83
2022-11-16T19:12:35.934Z,9.86
2022-11-16T19:15:02.401Z,9.88
2022-11-16T19:17:28.807Z,9.92
2022-11-16T19:19:55.238Z,9.97
2022-11-16T19:22:21.647Z,10.05
2022-11-16T19:24:48.056Z,10.11
2022-11-16T19:27:14.541Z,10.18
2022-11-16T19:29:40.950Z,10.30
2022-11-16T19:32:07.403Z,10.41
2022-11-16T19:34:33.809Z,10.43
2022-11-16T19:37:00.249Z,10.46
2022-11-16T19:39:26.637Z,10.51
2022-11-16T19:41:53.066Z,10.55
2022-11-16T19:44:19.471Z,10.59
2022-11-16T19:46:45.899Z,10.74
2022-11-16T19:49:19.448Z,10.69
2022-11-16T19:51:46.319Z,10.71
2022-11-16T19:54:12.723Z,10.71
2022-11-16T19:56:39.347Z,10.70
2022-11-16T19:59:05.755Z,10.69
2022-11-16T20:01:32.297Z,10.67
2022-11-16T20:03:59.415Z,10.67
2022-11-16T20:06:27.002Z,10.66
2022-11-16T20:08:53.404Z,10.75
2022-11-16T20:11:19.879Z,10.68
2022-11-16T20:13:46.782Z,10.72
2022-11-16T20:16:13.388Z,10.78
2022-11-16T20:18:41.048Z,10.78
2022-11-16T20:21:07.491Z,10.75
2022-11-16T20:23:34.221Z,10.79
2022-11-16T20:26:00.832Z,10.82
2022-11-16T20:28:27.229Z,10.87
2022-11-16T20:30:53.676Z,10.87
2022-11-16T20:33:20.075Z,10.89
2022-11-16T20:35:46.681Z,10.91
2022-11-16T20:38:14.796Z,10.95
2022-11-16T20:40:41.392Z,10.97
2022-11-16T20:43:07.963Z,10.98
2022-11-16T20:45:34.386Z,10.97
2022-11-16T20:48:00.812Z,10.98
2022-11-16T20:50:27.230Z,11.04
2022-11-16T20:52:54.328Z,11.05
2022-11-16T20:55:20.754Z,11.07
2022-11-16T20:57:47.496Z,11.09
2022-11-16T21:00:13.955Z,11.13
2022-11-16T21:02:40.429Z,11.15
2022-11-16T21:05:06.847Z,11.13
2022-11-16T21:07:33.297Z,11.12
2022-11-16T21:09:59.814Z,11.15
2022-11-16T21:12:26.187Z,11.15
2022-11-16T21:14:52.610Z,11.20
2022-11-16T21:17:19.002Z,11.18
2022-11-16T21:20:05.350Z,11.17
2022-11-16T21:23:46.716Z,11.17
2022-11-16T21:25:20.290Z,11.18
2022-11-16T21:27:46.881Z,11.16
2022-11-16T21:30:13.465Z,11.17
2022-11-16T21:32:40.176Z,11.14
2022-11-16T21:35:07.657Z,11.17
2022-11-16T21:37:34.244Z,11.16
2022-11-16T21:40:02.832Z,11.16
2022-11-16T21:42:29.447Z,11.17
2022-11-16T21:44:55.916Z,11.13
2022-11-16T21:47:22.330Z,11.14
2022-11-16T21:50:16.920Z,11.13
2022-11-16T21:52:35.100Z,11.12
2022-11-16T21:55:01.521Z,11.07
2022-11-16T21:57:28.043Z,11.07
2022-11-16T21:59:54.671Z,11.08
2022-11-16T22:02:22.285Z,11.02
2022-11-16T22:04:50.879Z,11.03
2022-11-16T22:07:17.534Z,10.99
2022-11-16T22:09:45.073Z,11.01
2022-11-16T22:12:11.502Z,10.96
2022-11-16T22:14:37.943Z,10.94
2022-11-16T22:17:04.355Z,10.95
2022-11-16T22:19:30.758Z,10.90
2022-11-16T22:21:57.184Z,10.90
2022-11-16T22:24:23.685Z,10.87
2022-11-16T22:26:50.134Z,10.76
2022-11-16T22:29:16.540Z,10.71
2022-11-16T22:31:42.962Z,10.63
2022-11-16T22:34:09.379Z,10.60
2022-11-16T22:36:35.760Z,10.61
2022-11-16T22:39:02.160Z,10.59
2022-11-16T22:41:28.544Z,10.60
2022-11-16T22:43:54.995Z,10.56
2022-11-16T22:46:21.895Z,10.57
2022-11-16T22:48:48.322Z,10.57
2022-11-16T22:51:14.712Z,10.64
2022-11-16T22:53:41.167Z,10.68
2022-11-16T22:56:08.278Z,10.68
2022-11-16T22:58:34.725Z,10.69
2022-11-16T23:01:01.446Z,10.73
2022-11-16T23:03:29.082Z,10.79
2022-11-16T23:05:55.527Z,10.80
2022-11-16T23:08:21.927Z,10.85
2022-11-16T23:10:49.331Z,10.88
2022-11-16T23:13:15.764Z,10.93
2022-11-16T23:15:42.191Z,10.94
2022-11-16T23:18:08.580Z,11.10
2022-11-16T23:20:34.978Z,11.04
2022-11-16T23:23:01.392Z,11.11
2022-11-16T23:25:27.810Z,11.09
2022-11-16T23:27:54.213Z,11.09
2022-11-16T23:30:20.589Z,11.18
2022-11-16T23:32:47.074Z,11.08
2022-11-16T23:35:13.476Z,11.08
2022-11-16T23:37:39.877Z,11.00
2022-11-16T23:40:06.268Z,11.00
2022-11-16T23:42:33.520Z,11.02
2022-11-16T23:44:59.910Z,11.02
2022-11-16T23:47:26.731Z,11.15
2022-11-16T23:49:53.125Z,11.14
2022-11-16T23:52:19.516Z,11.22
2022-11-16T23:54:45.947Z,11.25
2022-11-16T23:57:13.094Z,11.26
2022-11-16T23:59:39.519Z,11.25
